createdAt,value
2023-01-03T00:02:22.080Z,100041.09
2023-01-03T00:04:50.005Z,100036.88
2023-01-03T00:07:34.045Z,100043.69
2023-01-03T00:10:02.160Z,100030.91
2023-01-03T00:12:31.384Z,100034.34
2023-01-03T00:14:58.761Z,100045.44
2023-01-03T00:17:25.699Z,100047.16
2023-01-03T00:19:52.565Z,100034.38
2023-01-03T00:22:19.347Z,100041.16
2023-01-03T00:24:46.570Z,100035.25
2023-01-03T00:27:13.571Z,100042.03
2023-01-03T00:29:40.377Z,100043.75
2023-01-03T00:32:07.270Z,100044.59
2023-01-03T00:34:34.175Z,100048.88
2023-01-03T00:37:01.101Z,100048.88
2023-01-03T00:39:27.969Z,100057.38
2023-01-03T00:41:54.810Z,100058.25
2023-01-03T00:44:21.750Z,100059.13
2023-01-03T00:46:48.607Z,100060.00
2023-01-03T00:49:15.508Z,100062.56
2023-01-03T00:51:42.761Z,100065.94
2023-01-03T00:54:11.926Z,100068.53
2023-01-03T00:56:40.945Z,100071.97
2023-01-03T00:59:07.860Z,100069.41
2023-01-03T01:01:46.250Z,100062.56
2023-01-03T01:04:16.421Z,100070.25
2023-01-03T01:06:44.005Z,100077.13
2023-01-03T01:09:14.829Z,100078.84
2023-01-03T01:11:41.905Z,100075.41
2023-01-03T01:14:20.134Z,100072.84
2023-01-03T01:16:47.996Z,100079.72
2023-01-03T01:19:15.266Z,100089.94
2023-01-03T01:21:43.151Z,100097.59
2023-01-03T01:24:14.328Z,100096.72
2023-01-03T01:26:46.131Z,100108.63
2023-01-03T01:29:13.256Z,100106.06
2023-01-03T01:31:40.279Z,100100.16
2023-01-03T01:34:07.130Z,100099.28
2023-01-03T01:36:37.630Z,100100.94
2023-01-03T01:39:05.350Z,100087.34
2023-01-03T01:41:51.176Z,100084.81
2023-01-03T01:44:39.679Z,100081.34
2023-01-03T01:47:10.009Z,100091.56
2023-01-03T01:49:36.867Z,100078.78
2023-01-03T01:52:03.708Z,100092.41
2023-01-03T01:54:30.549Z,100096.66
2023-01-03T01:56:57.410Z,100086.38
2023-01-03T01:59:24.252Z,100091.50
2023-01-03T02:01:52.795Z,100097.38
2023-01-03T02:04:21.487Z,100093.16
2023-01-03T02:06:48.301Z,100085.44
2023-01-03T02:09:15.145Z,100082.00
2023-01-03T02:12:15.823Z,100081.16
2023-01-03T02:14:46.413Z,100090.47
2023-01-03T02:17:16.366Z,100088.75
2023-01-03T02:19:52.001Z,100087.88
2023-01-03T02:22:37.165Z,100087.06
2023-01-03T02:25:04.043Z,100104.09
2023-01-03T02:27:30.832Z,100100.69
2023-01-03T02:30:09.968Z,100108.41
2023-01-03T02:32:43.527Z,100093.91
2023-01-03T02:35:13.328Z,100086.25
2023-01-03T02:37:41.141Z,100089.63
2023-01-03T02:40:08.083Z,100084.53
2023-01-03T02:42:55.727Z,100080.25
2023-01-03T02:45:37.823Z,100085.38
2023-01-03T02:48:06.591Z,100093.00
2023-01-03T02:50:35.172Z,100092.13
2023-01-03T02:53:03.119Z,100093.84
2023-01-03T02:55:30.925Z,100094.63
2023-01-03T02:58:05.245Z,100098.03
2023-01-03T03:00:33.073Z,100096.31
2023-01-03T03:03:01.111Z,100095.41
2023-01-03T03:05:29.125Z,100105.59
2023-01-03T03:07:56.071Z,100103.84
2023-01-03T03:10:41.698Z,100100.44
2023-01-03T03:13:27.324Z,100107.19
2023-01-03T03:16:03.571Z,100108.03
2023-01-03T03:18:30.530Z,100100.31
2023-01-03T03:21:15.919Z,100106.19
2023-01-03T03:24:01.556Z,100106.16
2023-01-03T03:26:31.700Z,100101.03
2023-01-03T03:29:00.671Z,100104.41
2023-01-03T03:31:57.200Z,100102.69
2023-01-03T03:34:25.230Z,100104.34
2023-01-03T03:37:01.315Z,100109.38
2023-01-03T03:39:46.799Z,100116.09
2023-01-03T03:42:44.700Z,100113.47
2023-01-03T03:45:13.447Z,100110.84
2023-01-03T03:47:45.629Z,100123.56
2023-01-03T03:50:28.081Z,100120.97
2023-01-03T03:52:56.184Z,100124.38
2023-01-03T03:55:24.540Z,100122.50
2023-01-03T03:57:56.348Z,100116.47
2023-01-03T04:00:24.551Z,100131.75
2023-01-03T04:02:51.468Z,100126.56
2023-01-03T04:05:19.739Z,100129.09
2023-01-03T04:07:46.854Z,100135.91
2023-01-03T04:10:13.981Z,100145.19
2023-01-03T04:12:40.962Z,100148.59
2023-01-03T04:15:08.089Z,100149.38
2023-01-03T04:17:34.969Z,100157.84
2023-01-03T04:20:01.981Z,100157.78
2023-01-03T04:22:28.890Z,100156.09
2023-01-03T04:24:55.763Z,100152.66
2023-01-03T04:27:22.840Z,100150.88
2023-01-03T04:29:49.691Z,100154.28
2023-01-03T04:32:16.537Z,100158.50
2023-01-03T04:34:43.773Z,100157.66
2023-01-03T04:37:10.724Z,100159.28
2023-01-03T04:39:37.600Z,100161.81
2023-01-03T04:42:24.556Z,100166.03
2023-01-03T04:44:51.504Z,100174.56
2023-01-03T04:47:18.460Z,100175.44
2023-01-03T04:49:46.584Z,100168.53
2023-01-03T04:52:16.633Z,100169.41
2023-01-03T04:54:43.665Z,100166.88
2023-01-03T04:57:10.740Z,100167.69
2023-01-03T04:59:37.933Z,100161.72
2023-01-03T05:02:04.876Z,100160.84
2023-01-03T05:04:32.236Z,100163.41
2023-01-03T05:06:59.215Z,100161.69
2023-01-03T05:09:27.408Z,100165.06
2023-01-03T05:11:54.302Z,100168.41
2023-01-03T05:14:21.269Z,100173.47
2023-01-03T05:16:48.148Z,100171.75
2023-01-03T05:19:15.094Z,100180.22
2023-01-03T05:22:00.755Z,100175.94
2023-01-03T05:24:56.404Z,100177.63
2023-01-03T05:27:23.401Z,100184.38
2023-01-03T05:29:50.551Z,100184.34
2023-01-03T05:32:17.493Z,100193.72
2023-01-03T05:34:44.435Z,100191.16
2023-01-03T05:37:11.367Z,100186.03
2023-01-03T05:39:38.205Z,100192.78
2023-01-03T05:42:05.131Z,100194.50
2023-01-03T05:44:32.863Z,100192.75
2023-01-03T05:47:00.015Z,100196.13
2023-01-03T05:49:26.900Z,100197.84
2023-01-03T05:51:53.830Z,100192.72
2023-01-03T05:54:21.422Z,100202.88
2023-01-03T05:56:48.427Z,100200.28
2023-01-03T05:59:16.268Z,100209.63
2023-01-03T06:01:43.303Z,100207.09
2023-01-03T06:04:10.305Z,100201.91
2023-01-03T06:06:37.291Z,100211.25
2023-01-03T06:09:04.281Z,100200.13
2023-01-03T06:11:31.208Z,100201.00
2023-01-03T06:13:58.127Z,100203.53
2023-01-03T06:16:43.672Z,100210.28
2023-01-03T06:19:10.805Z,100213.69
2023-01-03T06:21:37.822Z,100218.78
2023-01-03T06:24:04.975Z,100227.22
2023-01-03T06:26:31.946Z,100236.59
2023-01-03T06:28:58.888Z,100239.94
2023-01-03T06:31:25.959Z,100239.94
2023-01-03T06:33:53.485Z,100244.19
2023-01-03T06:36:21.399Z,100249.25
2023-01-03T06:38:48.390Z,100252.66
2023-01-03T06:41:15.901Z,100251.81
2023-01-03T06:43:42.816Z,100257.66
2023-01-03T06:46:28.899Z,100268.69
2023-01-03T06:49:16.285Z,100275.47
2023-01-03T06:52:01.869Z,100270.34
2023-01-03T06:54:32.425Z,100268.63
2023-01-03T06:56:59.464Z,100274.56
2023-01-03T06:59:27.546Z,100260.94
2023-01-03T07:01:54.880Z,100265.16
2023-01-03T07:04:22.960Z,100270.25
2023-01-03T07:06:50.050Z,100277.91
2023-01-03T07:09:18.176Z,100276.25
2023-01-03T07:11:45.240Z,100280.47
2023-01-03T07:14:12.410Z,100278.75
2023-01-03T07:16:40.160Z,100273.63
2023-01-03T07:19:07.501Z,100273.63
2023-01-03T07:21:34.649Z,100282.97
2023-01-03T07:24:02.008Z,100282.09
2023-01-03T07:26:31.037Z,100287.19
2023-01-03T07:28:59.115Z,100291.44
2023-01-03T07:31:26.248Z,100294.78
2023-01-03T07:33:53.450Z,100296.53
2023-01-03T07:36:20.590Z,100308.47
2023-01-03T07:38:47.504Z,100308.47
2023-01-03T07:41:14.601Z,100307.59
2023-01-03T07:43:45.306Z,100304.19
2023-01-03T07:46:22.282Z,100299.09
2023-01-03T07:48:53.728Z,100308.47
2023-01-03T07:51:23.270Z,100303.38
2023-01-03T07:53:50.401Z,100305.91
2023-01-03T07:56:21.324Z,100300.00
2023-01-03T07:58:48.668Z,100300.81
2023-01-03T08:01:16.229Z,100310.19
2023-01-03T08:03:43.298Z,100311.94
2023-01-03T08:06:10.824Z,100326.41
2023-01-03T08:08:37.631Z,100327.34
2023-01-03T08:11:23.255Z,100321.41
2023-01-03T08:13:50.441Z,100327.44
2023-01-03T08:16:18.067Z,100317.28
2023-01-03T08:18:45.258Z,100321.56
2023-01-03T08:21:13.449Z,100319.06
2023-01-03T08:23:40.533Z,100317.44
2023-01-03T08:26:08.318Z,100318.34
2023-01-03T08:28:35.380Z,100304.78
2023-01-03T08:31:03.139Z,100311.69
2023-01-03T08:33:31.519Z,100319.41
2023-01-03T08:36:00.839Z,100324.63
2023-01-03T08:38:29.315Z,100328.06
2023-01-03T08:40:56.157Z,100334.97
2023-01-03T08:43:23.079Z,100335.06
2023-01-03T08:45:50.027Z,100333.34
2023-01-03T08:48:17.231Z,100339.44
2023-01-03T08:50:44.062Z,100338.69
2023-01-03T08:53:11.173Z,100339.63
2023-01-03T08:55:38.022Z,100337.16
2023-01-03T08:58:04.779Z,100347.50
2023-01-03T09:00:31.682Z,100347.69
2023-01-03T09:03:00.471Z,100350.38
2023-01-03T09:05:27.992Z,100347.06
2023-01-03T09:07:55.221Z,100355.75
2023-01-03T09:10:22.253Z,100358.47
2023-01-03T09:12:52.006Z,100356.94
2023-01-03T09:15:19.182Z,100374.06
2023-01-03T09:17:47.531Z,100361.38
2023-01-03T09:20:14.793Z,100368.28
2023-01-03T09:22:41.683Z,100371.78
2023-01-03T09:25:08.834Z,100372.75
2023-01-03T09:27:38.348Z,100370.28
2023-01-03T09:30:06.387Z,100380.59
2023-01-03T09:32:33.567Z,100369.66
2023-01-03T09:35:00.411Z,100366.34
2023-01-03T09:37:27.255Z,100362.22
2023-01-03T09:39:54.081Z,100363.16
2023-01-03T09:42:43.115Z,100362.44
2023-01-03T09:45:11.558Z,100352.38
2023-01-03T09:47:38.443Z,100352.50
2023-01-03T09:53:12.033Z,100352.78
2023-01-03T09:56:13.521Z,100351.22
2023-01-03T09:58:59.557Z,100336.06
2023-01-03T10:01:52.956Z,100339.63
2023-01-03T10:04:46.142Z,100338.06
2023-01-03T10:07:44.988Z,100330.53
2023-01-03T10:10:19.436Z,100328.09
2023-01-03T10:12:46.357Z,100323.09
2023-01-03T10:15:13.187Z,100326.66
2023-01-03T10:17:43.963Z,100326.78
2023-01-03T10:20:15.349Z,100321.78
2023-01-03T10:22:42.272Z,100320.34
2023-01-03T10:25:10.803Z,100311.03
2023-01-03T10:27:45.185Z,100320.47
2023-01-03T10:30:18.700Z,100313.78
2023-01-03T10:32:58.907Z,100309.59
2023-01-03T10:35:35.376Z,100310.53
2023-01-03T10:38:02.400Z,100315.78
2023-01-03T10:40:45.805Z,100317.59
2023-01-03T10:43:19.694Z,100324.56
2023-01-03T10:45:50.540Z,100319.53
2023-01-03T10:48:17.395Z,100323.09
2023-01-03T10:50:44.392Z,100324.97
2023-01-03T10:53:11.243Z,100327.63
2023-01-03T10:55:44.165Z,100314.91
2023-01-03T10:58:23.856Z,100321.84
2023-01-03T11:00:51.157Z,100316.03
2023-01-03T11:03:24.840Z,100311.84
2023-01-03T11:05:57.833Z,100308.53
2023-01-03T11:08:34.982Z,100307.78
2023-01-03T11:11:01.815Z,100313.03
2023-01-03T11:13:34.870Z,100308.84
2023-01-03T11:16:02.623Z,100311.53
2023-01-03T11:18:29.780Z,100310.81
2023-01-03T11:21:02.237Z,100302.41
2023-01-03T11:23:32.136Z,100305.94
2023-01-03T11:26:05.482Z,100311.16
2023-01-03T11:28:38.540Z,100307.00
2023-01-03T11:31:08.639Z,100313.94
2023-01-03T11:33:46.129Z,100303.78
2023-01-03T11:36:16.247Z,100299.63
2023-01-03T11:39:01.886Z,100304.81
2023-01-03T11:41:34.768Z,100298.97
2023-01-03T11:44:04.739Z,100297.31
2023-01-03T11:46:44.739Z,100293.13
2023-01-03T11:49:31.249Z,100280.38
2023-01-03T11:52:14.601Z,100271.03
2023-01-03T11:54:51.008Z,100271.97
2023-01-03T11:57:45.755Z,100273.75
2023-01-03T12:00:22.317Z,100260.97
2023-01-03T12:02:52.802Z,100264.41
2023-01-03T12:05:43.455Z,100254.16
2023-01-03T12:08:23.010Z,100255.94
2023-01-03T12:10:57.298Z,100254.22
2023-01-03T12:13:33.399Z,100251.75
2023-01-03T12:16:07.220Z,100252.66
2023-01-03T12:18:41.105Z,100256.97
2023-01-03T12:21:31.735Z,100260.41
2023-01-03T12:24:06.081Z,100264.72
2023-01-03T12:26:33.221Z,100263.03
2023-01-03T12:29:12.181Z,100264.75
2023-01-03T12:31:47.736Z,100269.06
2023-01-03T12:34:19.492Z,100257.06
2023-01-03T12:36:48.404Z,100261.38
2023-01-03T12:39:15.299Z,100259.66
2023-01-03T12:41:46.825Z,100266.50
2023-01-03T12:44:16.025Z,100260.50
2023-01-03T12:46:44.785Z,100259.63
2023-01-03T12:49:14.630Z,100260.50
2023-01-03T12:51:41.477Z,100257.06
2023-01-03T12:54:15.182Z,100257.94
2023-01-03T12:56:48.045Z,100259.63
2023-01-03T12:59:25.783Z,100254.50
2023-01-03T13:01:55.196Z,100261.34
2023-01-03T13:04:26.369Z,100259.59
2023-01-03T13:06:54.716Z,100263.91
2023-01-03T13:09:22.912Z,100263.03
2023-01-03T13:11:53.442Z,100262.19
2023-01-03T13:14:23.112Z,100257.91
2023-01-03T13:16:50.313Z,100247.63
2023-01-03T13:19:20.441Z,100257.91
2023-01-03T13:21:51.550Z,100257.03
2023-01-03T13:24:37.373Z,100251.06
2023-01-03T13:27:16.584Z,100258.75
2023-01-03T13:29:44.496Z,100259.59
2023-01-03T13:32:20.461Z,100256.19
2023-01-03T13:34:56.525Z,100264.72
2023-01-03T13:37:23.476Z,100264.72
2023-01-03T13:41:07.537Z,100265.56
2023-01-03T13:43:16.877Z,100273.25
2023-01-03T13:45:43.944Z,100270.66
2023-01-03T13:48:19.474Z,100268.97
2023-01-03T13:51:07.087Z,100272.38
2023-01-03T13:53:55.820Z,100278.34
2023-01-03T13:56:29.209Z,100281.72
2023-01-03T13:59:14.181Z,100274.00
2023-01-03T14:01:41.228Z,100286.00
2023-01-03T14:04:30.732Z,100285.97
2023-01-03T14:07:16.052Z,100293.69
2023-01-03T14:10:06.304Z,100292.78
2023-01-03T14:12:51.970Z,100297.03
2023-01-03T14:15:25.902Z,100304.72
2023-01-03T14:17:54.678Z,100298.75
2023-01-03T14:20:22.586Z,100308.97
2023-01-03T14:22:50.291Z,100313.22
2023-01-03T14:25:33.045Z,100314.09
2023-01-03T14:28:15.705Z,100316.63
2023-01-03T14:30:42.602Z,100314.88
2023-01-03T14:33:19.157Z,100309.72
2023-01-03T14:35:46.183Z,100305.44
2023-01-03T14:38:39.374Z,100305.41
2023-01-03T14:41:06.301Z,100300.25
2023-01-03T14:43:33.619Z,100307.94
2023-01-03T14:46:01.719Z,100314.75
2023-01-03T14:48:28.572Z,100292.31
2023-01-03T14:50:55.561Z,100313.00
2023-01-03T14:53:22.550Z,100315.53
2023-01-03T14:55:51.004Z,100313.81
2023-01-03T14:58:21.036Z,100318.88
2023-01-03T15:00:48.353Z,100312.03
2023-01-03T15:03:15.374Z,100326.53
2023-01-03T15:05:42.405Z,100324.78
2023-01-03T15:08:15.633Z,100329.91
2023-01-03T15:10:48.086Z,100332.41
2023-01-03T15:13:25.599Z,100342.66
2023-01-03T15:15:53.519Z,100343.47
2023-01-03T15:18:21.157Z,100346.88
2023-01-03T15:20:48.280Z,100347.69
2023-01-03T15:23:25.609Z,100350.25
2023-01-03T15:25:53.366Z,100346.78
2023-01-03T15:28:25.552Z,100347.63
2023-01-03T15:30:56.214Z,100350.13
2023-01-03T15:33:33.780Z,100344.13
2023-01-03T15:36:02.728Z,100347.50
2023-01-03T15:38:36.556Z,100344.91
2023-01-03T15:42:06.394Z,100357.69
2023-01-03T15:44:38.163Z,100355.94
2023-01-03T15:47:06.469Z,100364.50
2023-01-03T15:49:37.685Z,100366.16
2023-01-03T15:52:04.786Z,100372.13
2023-01-03T15:54:31.658Z,100372.91
2023-01-03T15:57:02.373Z,100384.00
2023-01-03T15:59:30.408Z,100385.69
2023-01-03T16:01:57.390Z,100384.78
2023-01-03T16:04:24.380Z,100387.31
2023-01-03T16:06:52.873Z,100385.59
2023-01-03T16:09:20.104Z,100394.16
2023-01-03T16:11:47.200Z,100402.66
2023-01-03T16:14:15.479Z,100397.47
2023-01-03T16:16:42.907Z,100405.13
2023-01-03T16:19:22.945Z,100397.41
2023-01-03T16:22:16.023Z,100400.81
2023-01-03T16:24:36.980Z,100407.59
2023-01-03T16:27:06.462Z,100399.88
2023-01-03T16:29:33.330Z,100404.09
2023-01-03T16:32:00.190Z,100406.63
2023-01-03T16:34:33.463Z,100396.34
2023-01-03T16:37:00.824Z,100395.41
2023-01-03T16:39:27.733Z,100403.09
2023-01-03T16:42:13.219Z,100409.00
2023-01-03T16:44:40.782Z,100409.84
2023-01-03T16:47:10.240Z,100415.84
2023-01-03T16:49:37.081Z,100418.34
2023-01-03T16:52:04.045Z,100419.16
2023-01-03T16:54:30.945Z,100421.69
2023-01-03T16:56:57.726Z,100419.09
2023-01-03T16:59:24.750Z,100418.19
2023-01-03T17:01:51.770Z,100420.75
2023-01-03T17:04:18.780Z,100414.75
2023-01-03T17:06:45.736Z,100417.28
2023-01-03T17:09:19.524Z,100416.41
2023-01-03T17:11:46.397Z,100423.22
2023-01-03T17:14:22.418Z,100422.34
2023-01-03T17:16:49.741Z,100421.44
2023-01-03T17:22:21.980Z,100431.63
2023-01-03T17:24:49.347Z,100426.47
2023-01-03T17:27:17.293Z,100423.84
2023-01-03T17:29:44.128Z,100428.09
2023-01-03T17:32:18.124Z,100428.06
2023-01-03T17:34:45.016Z,100428.91
2023-01-03T17:37:21.038Z,100426.31
2023-01-03T17:39:50.038Z,100433.97
2023-01-03T17:42:16.888Z,100438.22
2023-01-03T17:44:44.785Z,100441.63
2023-01-03T17:47:38.770Z,100445.00
2023-01-03T17:50:05.796Z,100450.06
2023-01-03T17:52:33.695Z,100450.91
2023-01-03T17:55:00.492Z,100444.84
2023-01-03T17:57:27.442Z,100447.41
2023-01-03T17:59:54.387Z,100445.69
2023-01-03T18:02:22.488Z,100443.94
2023-01-03T18:05:15.204Z,100448.19
2023-01-03T18:07:36.901Z,100450.69
2023-01-03T18:10:03.795Z,100449.75
2023-01-03T18:12:31.295Z,100456.59
2023-01-03T18:14:58.094Z,100447.16
2023-01-03T18:17:26.104Z,100449.69
2023-01-03T18:19:53.026Z,100453.09
2023-01-03T18:22:20.028Z,100453.00
2023-01-03T18:24:46.893Z,100452.09
2023-01-03T18:27:13.770Z,100452.06
2023-01-03T18:29:40.604Z,100453.75
2023-01-03T18:32:27.427Z,100458.78
2023-01-03T18:34:54.452Z,100454.50
2023-01-03T18:37:21.571Z,100455.31
2023-01-03T18:39:48.422Z,100455.25
2023-01-03T18:42:34.023Z,100447.56
2023-01-03T18:45:00.912Z,100457.75
2023-01-03T18:47:27.666Z,100453.44
2023-01-03T18:49:54.582Z,100461.13
2023-01-03T18:52:25.181Z,100465.31
2023-01-03T18:54:52.023Z,100464.41
2023-01-03T18:57:20.753Z,100465.25
2023-01-03T18:59:49.512Z,100471.22
2023-01-03T19:02:18.344Z,100466.84
2023-01-03T19:04:51.029Z,100465.13
2023-01-03T19:07:19.260Z,100471.06
2023-01-03T19:09:46.104Z,100472.69
2023-01-03T19:12:14.069Z,100478.66
2023-01-03T19:14:46.404Z,100484.56
2023-01-03T19:17:14.168Z,100476.00
2023-01-03T19:19:41.048Z,100473.38
2023-01-03T19:22:16.222Z,100470.78
2023-01-03T19:24:44.555Z,100469.03
2023-01-03T19:27:13.295Z,100474.09
2023-01-03T19:29:40.281Z,100477.50
2023-01-03T19:32:10.947Z,100480.81
2023-01-03T19:34:37.787Z,100479.06
2023-01-03T19:37:04.690Z,100481.56
2023-01-03T19:39:37.093Z,100484.91
2023-01-03T19:42:22.941Z,100489.94
2023-01-03T19:44:50.089Z,100493.28
2023-01-03T19:47:18.058Z,100488.13
2023-01-03T19:49:47.389Z,100490.59
2023-01-03T19:52:14.551Z,100495.69
2023-01-03T19:54:41.444Z,100493.91
2023-01-03T19:57:24.706Z,100487.00
2023-01-03T19:59:52.777Z,100486.97
2023-01-03T20:02:40.505Z,100486.03
2023-01-03T20:05:19.727Z,100492.81
2023-01-03T20:07:50.100Z,100492.78
2023-01-03T20:10:18.518Z,100491.88
2023-01-03T20:12:46.125Z,100490.94
2023-01-03T20:15:19.309Z,100492.63
2023-01-03T20:17:47.960Z,100484.03
2023-01-03T20:20:18.997Z,100490.81
2023-01-03T20:23:05.783Z,100499.28
2023-01-03T20:25:33.352Z,100497.53
2023-01-03T20:28:00.762Z,100505.16
2023-01-03T20:30:28.682Z,100497.44
2023-01-03T20:32:55.805Z,100494.00
2023-01-03T20:38:10.934Z,100499.06
2023-01-03T20:40:38.312Z,100498.13
2023-01-03T20:43:07.226Z,100496.41
2023-01-03T20:45:34.471Z,100503.16
2023-01-03T20:48:01.361Z,100504.00
2023-01-03T20:50:28.753Z,100504.81
2023-01-03T20:52:56.236Z,100503.06
2023-01-03T20:55:23.792Z,100497.09
2023-01-03T20:57:51.093Z,100494.47
2023-01-03T21:00:31.540Z,100494.44
2023-01-03T21:03:01.611Z,100494.41
2023-01-03T21:05:28.966Z,100503.69
2023-01-03T21:08:18.646Z,100498.59
2023-01-03T21:10:52.860Z,100502.81
2023-01-03T21:13:24.102Z,100495.09
2023-01-03T21:15:52.457Z,100499.34
2023-01-03T21:18:19.636Z,100501.84
2023-01-03T21:20:49.378Z,100500.97
2023-01-03T21:23:24.339Z,100505.22
2023-01-03T21:25:55.661Z,100508.59
2023-01-03T21:28:23.371Z,100511.97
2023-01-03T21:30:50.670Z,100511.09
2023-01-03T21:33:17.876Z,100513.59
2023-01-03T21:35:45.638Z,100514.41
2023-01-03T21:38:12.700Z,100508.41
2023-01-03T21:40:39.760Z,100516.94
2023-01-03T21:43:08.112Z,100521.13
2023-01-03T21:45:48.568Z,100529.69
2023-01-03T21:48:18.392Z,100526.19
2023-01-03T21:50:46.335Z,100522.78
2023-01-03T21:53:14.563Z,100523.59
2023-01-03T21:55:41.894Z,100520.16
2023-01-03T21:58:09.379Z,100521.84
2023-01-03T22:00:42.695Z,100529.44
2023-01-03T22:03:32.207Z,100532.00
2023-01-03T22:06:11.129Z,100532.81
2023-01-03T22:08:38.839Z,100537.06
2023-01-03T22:11:07.085Z,100532.75
2023-01-03T22:13:36.211Z,100523.38
2023-01-03T22:16:07.457Z,100525.03
2023-01-03T22:18:35.093Z,100525.88
2023-01-03T22:21:07.148Z,100520.72
2023-01-03T22:23:34.316Z,100523.22
2023-01-03T22:26:02.255Z,100515.56
2023-01-03T22:28:35.256Z,100514.63
2023-01-03T22:31:02.686Z,100520.59
2023-01-03T22:33:30.274Z,100516.22
2023-01-03T22:35:58.104Z,100527.31
2023-01-03T22:38:25.067Z,100515.34
2023-01-03T22:40:51.872Z,100526.28
2023-01-03T22:43:18.718Z,100527.13
2023-01-03T22:45:45.842Z,100528.75
2023-01-03T22:48:12.708Z,100529.53
2023-01-03T22:50:40.005Z,100521.78
2023-01-03T22:53:07.059Z,100524.25
2023-01-03T22:55:33.975Z,100526.75
2023-01-03T22:58:00.770Z,100531.75
2023-01-03T23:00:28.074Z,100532.50
2023-01-03T23:02:54.877Z,100532.41
2023-01-03T23:05:21.725Z,100527.19
2023-01-03T23:07:48.614Z,100527.97
2023-01-03T23:10:15.539Z,100527.06
2023-01-03T23:13:01.259Z,100534.63
2023-01-03T23:15:31.624Z,100531.94
2023-01-03T23:18:01.287Z,100530.94
2023-01-03T23:20:32.361Z,100530.78
2023-01-03T23:23:07.766Z,100535.81
2023-01-03T23:25:35.268Z,100528.88
2023-01-03T23:28:02.126Z,100521.97
2023-01-03T23:30:28.947Z,100522.69
2023-01-03T23:32:56.023Z,100527.69
2023-01-03T23:35:22.891Z,100526.69
2023-01-03T23:37:49.702Z,100524.03
2023-01-03T23:40:24.255Z,100529.84
2023-01-03T23:45:44.201Z,100536.50
2023-01-03T23:48:30.979Z,100523.59
2023-01-03T23:51:24.688Z,100525.97
2023-01-03T23:54:14.787Z,100528.38
